sensor_id;sensor_type;location;lat;lon;timestamp;P1;durP1;ratioP1;P2;durP2;ratioP2
66946;SDS011;53853;51.982;5.928;2023-11-18T00:01:51;20.67;;;17.13;;
66946;SDS011;53853;51.982;5.928;2023-11-18T00:04:20;20.80;;;16.83;;
66946;SDS011;53853;51.982;5.928;2023-11-18T00:06:50;19.17;;;15.93;;
66946;SDS011;53853;51.982;5.928;2023-11-18T00:09:20;19.45;;;14.68;;
66946;SDS011;53853;51.982;5.928;2023-11-18T00:11:53;19.08;;;15.40;;
66946;SDS011;53853;51.982;5.928;2023-11-18T00:14:23;17.55;;;14.50;;
66946;SDS011;53853;51.982;5.928;2023-11-18T00:16:52;15.82;;;13.13;;
66946;SDS011;53853;51.982;5.928;2023-11-18T00:19:24;20.33;;;16.30;;
66946;SDS011;53853;51.982;5.928;2023-11-18T00:21:54;16.77;;;13.95;;
66946;SDS011;53853;51.982;5.928;2023-11-18T00:24:24;22.65;;;16.77;;
66946;SDS011;53853;51.982;5.928;2023-11-18T00:26:56;22.08;;;17.80;;
66946;SDS011;53853;51.982;5.928;2023-11-18T00:29:31;20.77;;;16.20;;
66946;SDS011;53853;51.982;5.928;2023-11-18T00:32:03;21.20;;;16.27;;
66946;SDS011;53853;51.982;5.928;2023-11-18T00:34:34;18.05;;;14.23;;
66946;SDS011;53853;51.982;5.928;2023-11-18T00:37:04;21.50;;;18.02;;
66946;SDS011;53853;51.982;5.928;2023-11-18T00:39:35;19.08;;;15.38;;
66946;SDS011;53853;51.982;5.928;2023-11-18T00:42:08;19.50;;;16.20;;
66946;SDS011;53853;51.982;5.928;2023-11-18T00:44:38;21.02;;;16.17;;
66946;SDS011;53853;51.982;5.928;2023-11-18T00:47:08;18.85;;;16.35;;
66946;SDS011;53853;51.982;5.928;2023-11-18T00:49:38;22.45;;;17.15;;
66946;SDS011;53853;51.982;5.928;2023-11-18T00:52:08;20.60;;;15.90;;
66946;SDS011;53853;51.982;5.928;2023-11-18T00:54:38;22.35;;;17.50;;
66946;SDS011;53853;51.982;5.928;2023-11-18T00:57:10;22.45;;;16.67;;
66946;SDS011;53853;51.982;5.928;2023-11-18T00:59:41;18.58;;;15.38;;
66946;SDS011;53853;51.982;5.928;2023-11-18T01:02:11;21.13;;;17.00;;
66946;SDS011;53853;51.982;5.928;2023-11-18T01:04:43;20.20;;;15.82;;
66946;SDS011;53853;51.982;5.928;2023-11-18T01:07:14;20.63;;;16.98;;
66946;SDS011;53853;51.982;5.928;2023-11-18T01:09:44;20.40;;;14.88;;
66946;SDS011;53853;51.982;5.928;2023-11-18T01:12:17;20.42;;;16.50;;
66946;SDS011;53853;51.982;5.928;2023-11-18T01:14:47;19.67;;;16.05;;
66946;SDS011;53853;51.982;5.928;2023-11-18T01:17:17;19.95;;;16.10;;
66946;SDS011;53853;51.982;5.928;2023-11-18T01:19:47;20.77;;;16.13;;
66946;SDS011;53853;51.982;5.928;2023-11-18T01:22:17;19.70;;;16.70;;
66946;SDS011;53853;51.982;5.928;2023-11-18T01:24:47;21.58;;;15.85;;
66946;SDS011;53853;51.982;5.928;2023-11-18T01:27:19;21.50;;;16.08;;
66946;SDS011;53853;51.982;5.928;2023-11-18T01:29:49;20.85;;;16.45;;
66946;SDS011;53853;51.982;5.928;2023-11-18T01:32:19;20.55;;;16.13;;
66946;SDS011;53853;51.982;5.928;2023-11-18T01:34:49;20.33;;;16.10;;
66946;SDS011;53853;51.982;5.928;2023-11-18T01:37:19;20.38;;;15.52;;
66946;SDS011;53853;51.982;5.928;2023-11-18T01:39:50;18.63;;;14.95;;
66946;SDS011;53853;51.982;5.928;2023-11-18T01:42:22;21.42;;;16.38;;
66946;SDS011;53853;51.982;5.928;2023-11-18T01:44:52;21.10;;;16.35;;
66946;SDS011;53853;51.982;5.928;2023-11-18T01:47:22;20.65;;;16.48;;
66946;SDS011;53853;51.982;5.928;2023-11-18T01:49:52;20.33;;;15.82;;
66946;SDS011;53853;51.982;5.928;2023-11-18T01:52:23;19.02;;;14.77;;
66946;SDS011;53853;51.982;5.928;2023-11-18T01:54:55;17.08;;;13.90;;
66946;SDS011;53853;51.982;5.928;2023-11-18T01:57:28;18.35;;;14.95;;
66946;SDS011;53853;51.982;5.928;2023-11-18T01:59:59;19.85;;;15.75;;
66946;SDS011;53853;51.982;5.928;2023-11-18T02:02:39;20.38;;;15.82;;
66946;SDS011;53853;51.982;5.928;2023-11-18T02:05:09;18.60;;;15.90;;
66946;SDS011;53853;51.982;5.928;2023-11-18T02:07:39;18.63;;;15.27;;
66946;SDS011;53853;51.982;5.928;2023-11-18T02:10:09;17.83;;;14.50;;
66946;SDS011;53853;51.982;5.928;2023-11-18T02:12:46;15.65;;;13.05;;
66946;SDS011;53853;51.982;5.928;2023-11-18T02:15:24;21.17;;;15.73;;
66946;SDS011;53853;51.982;5.928;2023-11-18T02:17:57;18.98;;;15.27;;
66946;SDS011;53853;51.982;5.928;2023-11-18T02:20:30;18.67;;;14.40;;
66946;SDS011;53853;51.982;5.928;2023-11-18T02:23:02;18.30;;;14.95;;
66946;SDS011;53853;51.982;5.928;2023-11-18T02:25:33;16.20;;;13.25;;
66946;SDS011;53853;51.982;5.928;2023-11-18T02:28:07;17.02;;;14.43;;
66946;SDS011;53853;51.982;5.928;2023-11-18T02:30:38;18.42;;;14.73;;
66946;SDS011;53853;51.982;5.928;2023-11-18T02:33:10;17.85;;;14.07;;
66946;SDS011;53853;51.982;5.928;2023-11-18T02:35:46;21.70;;;16.95;;
66946;SDS011;53853;51.982;5.928;2023-11-18T02:38:22;22.35;;;17.50;;
66946;SDS011;53853;51.982;5.928;2023-11-18T02:41:02;25.02;;;18.33;;
66946;SDS011;53853;51.982;5.928;2023-11-18T02:43:41;20.17;;;15.38;;
66946;SDS011;53853;51.982;5.928;2023-11-18T02:46:11;23.20;;;17.95;;
66946;SDS011;53853;51.982;5.928;2023-11-18T02:48:42;21.58;;;15.75;;
66946;SDS011;53853;51.982;5.928;2023-11-18T02:51:13;25.13;;;19.33;;
66946;SDS011;53853;51.982;5.928;2023-11-18T02:53:42;28.55;;;19.35;;
66946;SDS011;53853;51.982;5.928;2023-11-18T02:56:12;23.50;;;17.50;;
66946;SDS011;53853;51.982;5.928;2023-11-18T02:58:47;23.85;;;18.00;;
66946;SDS011;53853;51.982;5.928;2023-11-18T03:01:17;28.13;;;21.15;;
66946;SDS011;53853;51.982;5.928;2023-11-18T03:03:47;24.95;;;19.05;;
66946;SDS011;53853;51.982;5.928;2023-11-18T03:06:16;25.38;;;18.75;;
66946;SDS011;53853;51.982;5.928;2023-11-18T03:08:46;22.17;;;16.27;;
66946;SDS011;53853;51.982;5.928;2023-11-18T03:11:17;26.17;;;18.77;;
66946;SDS011;53853;51.982;5.928;2023-11-18T03:13:51;28.50;;;20.13;;
66946;SDS011;53853;51.982;5.928;2023-11-18T03:16:20;26.33;;;19.05;;
66946;SDS011;53853;51.982;5.928;2023-11-18T03:18:50;24.67;;;19.08;;
66946;SDS011;53853;51.982;5.928;2023-11-18T03:21:20;19.20;;;16.05;;
66946;SDS011;53853;51.982;5.928;2023-11-18T03:23:52;28.42;;;18.42;;
66946;SDS011;53853;51.982;5.928;2023-11-18T03:26:21;20.45;;;15.73;;
66946;SDS011;53853;51.982;5.928;2023-11-18T03:28:54;23.95;;;17.67;;
66946;SDS011;53853;51.982;5.928;2023-11-18T03:31:24;26.23;;;19.20;;
66946;SDS011;53853;51.982;5.928;2023-11-18T03:33:54;26.83;;;18.60;;
66946;SDS011;53853;51.982;5.928;2023-11-18T03:36:24;22.00;;;16.35;;
66946;SDS011;53853;51.982;5.928;2023-11-18T03:38:54;24.02;;;17.15;;
66946;SDS011;53853;51.982;5.928;2023-11-18T03:41:24;25.20;;;17.23;;
66946;SDS011;53853;51.982;5.928;2023-11-18T03:43:56;23.30;;;17.30;;
66946;SDS011;53853;51.982;5.928;2023-11-18T03:46:26;28.25;;;19.55;;
66946;SDS011;53853;51.982;5.928;2023-11-18T03:49:00;23.90;;;17.65;;
66946;SDS011;53853;51.982;5.928;2023-11-18T03:51:30;23.08;;;16.92;;
66946;SDS011;53853;51.982;5.928;2023-11-18T03:54:00;19.98;;;15.35;;
66946;SDS011;53853;51.982;5.928;2023-11-18T03:56:30;22.45;;;15.55;;
66946;SDS011;53853;51.982;5.928;2023-11-18T03:59:02;23.52;;;17.23;;
66946;SDS011;53853;51.982;5.928;2023-11-18T04:01:32;25.00;;;18.42;;
66946;SDS011;53853;51.982;5.928;2023-11-18T04:04:03;29.48;;;20.20;;
66946;SDS011;53853;51.982;5.928;2023-11-18T04:06:33;25.58;;;17.58;;
66946;SDS011;53853;51.982;5.928;2023-11-18T04:09:03;27.27;;;18.85;;
66946;SDS011;53853;51.982;5.928;2023-11-18T04:11:35;26.27;;;19.30;;
66946;SDS011;53853;51.982;5.928;2023-11-18T04:14:07;26.05;;;18.65;;
66946;SDS011;53853;51.982;5.928;2023-11-18T04:16:37;29.20;;;21.60;;
66946;SDS011;53853;51.982;5.928;2023-11-18T04:19:07;28.50;;;21.65;;
66946;SDS011;53853;51.982;5.928;2023-11-18T04:21:37;22.90;;;17.17;;
66946;SDS011;53853;51.982;5.928;2023-11-18T04:24:08;27.00;;;19.17;;
66946;SDS011;53853;51.982;5.928;2023-11-18T04:26:38;26.50;;;19.60;;
66946;SDS011;53853;51.982;5.928;2023-11-18T04:29:10;30.67;;;22.75;;
66946;SDS011;53853;51.982;5.928;2023-11-18T04:31:40;27.05;;;19.83;;
66946;SDS011;53853;51.982;5.928;2023-11-18T04:34:10;27.33;;;20.42;;
66946;SDS011;53853;51.982;5.928;2023-11-18T04:36:40;28.63;;;21.52;;
66946;SDS011;53853;51.982;5.928;2023-11-18T04:39:10;32.42;;;20.58;;
66946;SDS011;53853;51.982;5.928;2023-11-18T04:41:41;26.83;;;19.52;;
66946;SDS011;53853;51.982;5.928;2023-11-18T04:44:13;25.20;;;20.45;;
66946;SDS011;53853;51.982;5.928;2023-11-18T04:46:44;26.00;;;19.07;;
66946;SDS011;53853;51.982;5.928;2023-11-18T04:49:14;25.02;;;18.50;;
66946;SDS011;53853;51.982;5.928;2023-11-18T04:51:44;24.73;;;19.30;;
66946;SDS011;53853;51.982;5.928;2023-11-18T04:54:14;24.92;;;18.88;;
66946;SDS011;53853;51.982;5.928;2023-11-18T04:56:45;24.10;;;17.30;;
66946;SDS011;53853;51.982;5.928;2023-11-18T04:59:17;21.35;;;17.52;;
66946;SDS011;53853;51.982;5.928;2023-11-18T05:01:47;23.27;;;18.20;;
66946;SDS011;53853;51.982;5.928;2023-11-18T05:04:18;21.50;;;15.98;;
66946;SDS011;53853;51.982;5.928;2023-11-18T05:06:48;23.00;;;17.50;;
66946;SDS011;53853;51.982;5.928;2023-11-18T05:09:18;26.20;;;18.42;;
66946;SDS011;53853;51.982;5.928;2023-11-18T05:11:48;18.85;;;15.10;;
66946;SDS011;53853;51.982;5.928;2023-11-18T05:14:20;22.88;;;16.55;;
66946;SDS011;53853;51.982;5.928;2023-11-18T05:16:52;19.27;;;14.73;;
66946;SDS011;53853;51.982;5.928;2023-11-18T05:19:21;18.48;;;13.18;;
66946;SDS011;53853;51.982;5.928;2023-11-18T05:21:51;21.75;;;15.65;;
66946;SDS011;53853;51.982;5.928;2023-11-18T05:24:21;20.00;;;14.73;;
66946;SDS011;53853;51.982;5.928;2023-11-18T05:26:51;22.67;;;17.85;;
66946;SDS011;53853;51.982;5.928;2023-11-18T05:29:24;23.85;;;18.45;;
66946;SDS011;53853;51.982;5.928;2023-11-18T05:31:53;26.10;;;19.13;;
66946;SDS011;53853;51.982;5.928;2023-11-18T05:34:23;20.80;;;16.65;;
66946;SDS011;53853;51.982;5.928;2023-11-18T05:36:53;22.02;;;16.25;;
66946;SDS011;53853;51.982;5.928;2023-11-18T05:39:23;25.83;;;19.67;;
66946;SDS011;53853;51.982;5.928;2023-11-18T05:41:56;23.95;;;17.92;;
66946;SDS011;53853;51.982;5.928;2023-11-18T05:44:29;23.85;;;19.08;;
66946;SDS011;53853;51.982;5.928;2023-11-18T05:47:03;24.45;;;18.63;;
66946;SDS011;53853;51.982;5.928;2023-11-18T05:49:33;25.88;;;20.02;;
66946;SDS011;53853;51.982;5.928;2023-11-18T05:52:03;24.75;;;19.52;;
66946;SDS011;53853;51.982;5.928;2023-11-18T05:54:34;23.95;;;18.98;;
66946;SDS011;53853;51.982;5.928;2023-11-18T05:57:04;26.27;;;20.38;;
66946;SDS011;53853;51.982;5.928;2023-11-18T05:59:36;19.67;;;15.95;;
66946;SDS011;53853;51.982;5.928;2023-11-18T06:02:06;20.98;;;16.95;;
66946;SDS011;53853;51.982;5.928;2023-11-18T06:04:38;20.90;;;15.85;;
66946;SDS011;53853;51.982;5.928;2023-11-18T06:07:08;20.85;;;15.20;;
66946;SDS011;53853;51.982;5.928;2023-11-18T06:09:39;16.02;;;12.77;;
66946;SDS011;53853;51.982;5.928;2023-11-18T06:12:09;20.52;;;15.57;;
66946;SDS011;53853;51.982;5.928;2023-11-18T06:14:41;20.42;;;16.45;;
66946;SDS011;53853;51.982;5.928;2023-11-18T06:17:12;23.45;;;20.02;;
66946;SDS011;53853;51.982;5.928;2023-11-18T06:19:43;20.55;;;15.38;;
66946;SDS011;53853;51.982;5.928;2023-11-18T06:22:13;28.70;;;22.85;;
66946;SDS011;53853;51.982;5.928;2023-11-18T06:24:43;23.90;;;19.45;;
66946;SDS011;53853;51.982;5.928;2023-11-18T06:27:13;21.38;;;18.02;;
66946;SDS011;53853;51.982;5.928;2023-11-18T06:29:46;25.90;;;19.88;;
66946;SDS011;53853;51.982;5.928;2023-11-18T06:32:20;19.75;;;15.30;;
66946;SDS011;53853;51.982;5.928;2023-11-18T06:34:51;16.02;;;12.75;;
66946;SDS011;53853;51.982;5.928;2023-11-18T06:37:21;19.65;;;14.75;;
66946;SDS011;53853;51.982;5.928;2023-11-18T06:39:51;21.83;;;15.85;;
66946;SDS011;53853;51.982;5.928;2023-11-18T06:42:21;18.30;;;12.45;;
66946;SDS011;53853;51.982;5.928;2023-11-18T06:44:53;18.70;;;14.85;;
66946;SDS011;53853;51.982;5.928;2023-11-18T06:47:23;26.33;;;20.83;;
66946;SDS011;53853;51.982;5.928;2023-11-18T06:49:55;19.30;;;16.50;;
66946;SDS011;53853;51.982;5.928;2023-11-18T06:52:26;19.48;;;16.58;;
66946;SDS011;53853;51.982;5.928;2023-11-18T06:54:56;18.92;;;14.70;;
66946;SDS011;53853;51.982;5.928;2023-11-18T06:57:26;19.10;;;15.65;;
66946;SDS011;53853;51.982;5.928;2023-11-18T06:59:59;18.02;;;14.18;;
66946;SDS011;53853;51.982;5.928;2023-11-18T07:02:33;24.33;;;18.67;;
66946;SDS011;53853;51.982;5.928;2023-11-18T07:05:03;23.85;;;16.52;;
66946;SDS011;53853;51.982;5.928;2023-11-18T07:07:34;20.40;;;17.80;;
66946;SDS011;53853;51.982;5.928;2023-11-18T07:10:04;18.27;;;14.60;;
66946;SDS011;53853;51.982;5.928;2023-11-18T07:12:38;14.50;;;11.73;;
66946;SDS011;53853;51.982;5.928;2023-11-18T07:15:11;14.98;;;12.70;;
66946;SDS011;53853;51.982;5.928;2023-11-18T07:17:42;16.27;;;13.30;;
66946;SDS011;53853;51.982;5.928;2023-11-18T07:20:12;20.17;;;15.40;;
66946;SDS011;53853;51.982;5.928;2023-11-18T07:22:42;16.98;;;15.15;;
66946;SDS011;53853;51.982;5.928;2023-11-18T07:25:12;19.60;;;16.17;;
66946;SDS011;53853;51.982;5.928;2023-11-18T07:27:43;18.02;;;13.98;;
66946;SDS011;53853;51.982;5.928;2023-11-18T07:30:15;15.30;;;13.68;;
66946;SDS011;53853;51.982;5.928;2023-11-18T07:32:45;17.45;;;13.05;;
66946;SDS011;53853;51.982;5.928;2023-11-18T07:35:16;12.88;;;11.48;;
66946;SDS011;53853;51.982;5.928;2023-11-18T07:37:46;16.05;;;13.48;;
66946;SDS011;53853;51.982;5.928;2023-11-18T07:40:16;14.55;;;12.63;;
66946;SDS011;53853;51.982;5.928;2023-11-18T07:42:53;14.57;;;11.68;;
66946;SDS011;53853;51.982;5.928;2023-11-18T07:45:34;12.20;;;10.50;;
66946;SDS011;53853;51.982;5.928;2023-11-18T07:48:05;17.50;;;14.10;;
66946;SDS011;53853;51.982;5.928;2023-11-18T07:50:38;16.38;;;11.93;;
66946;SDS011;53853;51.982;5.928;2023-11-18T07:53:10;14.90;;;11.02;;
66946;SDS011;53853;51.982;5.928;2023-11-18T07:55:39;16.55;;;12.85;;
66946;SDS011;53853;51.982;5.928;2023-11-18T07:58:11;14.82;;;11.02;;
66946;SDS011;53853;51.982;5.928;2023-11-18T08:00:43;16.38;;;12.45;;
66946;SDS011;53853;51.982;5.928;2023-11-18T08:03:13;15.48;;;11.80;;
66946;SDS011;53853;51.982;5.928;2023-11-18T08:05:44;16.17;;;12.77;;
66946;SDS011;53853;51.982;5.928;2023-11-18T08:08:15;15.95;;;13.75;;
66946;SDS011;53853;51.982;5.928;2023-11-18T08:10:45;13.15;;;10.27;;
66946;SDS011;53853;51.982;5.928;2023-11-18T08:13:16;11.25;;;9.50;;
66946;SDS011;53853;51.982;5.928;2023-11-18T08:15:48;19.38;;;14.13;;
66946;SDS011;53853;51.982;5.928;2023-11-18T08:18:18;14.52;;;11.65;;
66946;SDS011;53853;51.982;5.928;2023-11-18T08:20:49;15.10;;;11.93;;
66946;SDS011;53853;51.982;5.928;2023-11-18T08:23:19;15.80;;;11.38;;
66946;SDS011;53853;51.982;5.928;2023-11-18T08:25:49;16.42;;;12.40;;
66946;SDS011;53853;51.982;5.928;2023-11-18T08:28:19;14.75;;;11.35;;
66946;SDS011;53853;51.982;5.928;2023-11-18T08:30:52;16.90;;;12.45;;
66946;SDS011;53853;51.982;5.928;2023-11-18T08:33:22;17.05;;;12.93;;
66946;SDS011;53853;51.982;5.928;2023-11-18T08:35:54;20.92;;;14.73;;
66946;SDS011;53853;51.982;5.928;2023-11-18T08:38:24;16.08;;;11.23;;
66946;SDS011;53853;51.982;5.928;2023-11-18T08:40:54;16.10;;;13.00;;
66946;SDS011;53853;51.982;5.928;2023-11-18T08:43:24;19.05;;;13.25;;
66946;SDS011;53853;51.982;5.928;2023-11-18T08:45:57;23.48;;;14.23;;
66946;SDS011;53853;51.982;5.928;2023-11-18T08:48:27;17.05;;;12.95;;
66946;SDS011;53853;51.982;5.928;2023-11-18T08:50:59;16.92;;;12.07;;
66946;SDS011;53853;51.982;5.928;2023-11-18T08:53:33;18.08;;;11.88;;
66946;SDS011;53853;51.982;5.928;2023-11-18T08:56:07;14.07;;;11.07;;
66946;SDS011;53853;51.982;5.928;2023-11-18T08:58:41;12.23;;;10.25;;
66946;SDS011;53853;51.982;5.928;2023-11-18T09:01:13;20.02;;;15.38;;
66946;SDS011;53853;51.982;5.928;2023-11-18T09:03:43;21.13;;;14.35;;
66946;SDS011;53853;51.982;5.928;2023-11-18T09:06:14;16.38;;;12.10;;
66946;SDS011;53853;51.982;5.928;2023-11-18T09:08:51;20.92;;;14.43;;
66946;SDS011;53853;51.982;5.928;2023-11-18T09:11:23;16.75;;;11.10;;
66946;SDS011;53853;51.982;5.928;2023-11-18T09:13:58;16.27;;;11.20;;
66946;SDS011;53853;51.982;5.928;2023-11-18T09:16:32;20.10;;;13.40;;
66946;SDS011;53853;51.982;5.928;2023-11-18T09:19:05;20.77;;;14.25;;
66946;SDS011;53853;51.982;5.928;2023-11-18T09:21:35;24.27;;;16.35;;
66946;SDS011;53853;51.982;5.928;2023-11-18T09:24:06;21.75;;;14.10;;
66946;SDS011;53853;51.982;5.928;2023-11-18T09:26:38;15.05;;;12.15;;
66946;SDS011;53853;51.982;5.928;2023-11-18T09:29:10;16.80;;;11.35;;
66946;SDS011;53853;51.982;5.928;2023-11-18T09:31:48;17.42;;;11.85;;
66946;SDS011;53853;51.982;5.928;2023-11-18T09:34:18;14.65;;;9.75;;
66946;SDS011;53853;51.982;5.928;2023-11-18T09:36:53;13.80;;;9.77;;
66946;SDS011;53853;51.982;5.928;2023-11-18T09:39:24;13.68;;;9.10;;
66946;SDS011;53853;51.982;5.928;2023-11-18T09:42:11;17.20;;;11.95;;
66946;SDS011;53853;51.982;5.928;2023-11-18T09:44:44;16.42;;;11.02;;
66946;SDS011;53853;51.982;5.928;2023-11-18T09:47:18;13.90;;;10.68;;
66946;SDS011;53853;51.982;5.928;2023-11-18T09:49:53;16.67;;;12.27;;
66946;SDS011;53853;51.982;5.928;2023-11-18T09:52:29;19.75;;;12.52;;
66946;SDS011;53853;51.982;5.928;2023-11-18T09:55:02;16.58;;;10.93;;
66946;SDS011;53853;51.982;5.928;2023-11-18T09:57:41;16.45;;;11.05;;
66946;SDS011;53853;51.982;5.928;2023-11-18T10:00:23;18.42;;;10.27;;
66946;SDS011;53853;51.982;5.928;2023-11-18T10:03:01;14.35;;;9.88;;
66946;SDS011;53853;51.982;5.928;2023-11-18T10:05:33;13.40;;;9.77;;
66946;SDS011;53853;51.982;5.928;2023-11-18T10:08:05;16.15;;;11.25;;
66946;SDS011;53853;51.982;5.928;2023-11-18T10:10:34;13.85;;;10.25;;
66946;SDS011;53853;51.982;5.928;2023-11-18T10:13:11;13.82;;;9.82;;
66946;SDS011;53853;51.982;5.928;2023-11-18T10:15:49;16.70;;;9.80;;
66946;SDS011;53853;51.982;5.928;2023-11-18T10:18:25;16.52;;;11.23;;
66946;SDS011;53853;51.982;5.928;2023-11-18T10:20:57;12.82;;;9.50;;
66946;SDS011;53853;51.982;5.928;2023-11-18T10:23:27;12.35;;;8.90;;
66946;SDS011;53853;51.982;5.928;2023-11-18T10:26:00;17.33;;;10.50;;
66946;SDS011;53853;51.982;5.928;2023-11-18T10:28:30;14.52;;;10.52;;
66946;SDS011;53853;51.982;5.928;2023-11-18T10:31:03;13.90;;;9.52;;
66946;SDS011;53853;51.982;5.928;2023-11-18T10:33:38;18.20;;;10.95;;
66946;SDS011;53853;51.982;5.928;2023-11-18T10:38:48;13.07;;;8.55;;
66946;SDS011;53853;51.982;5.928;2023-11-18T10:41:21;65.43;;;49.13;;
66946;SDS011;53853;51.982;5.928;2023-11-18T10:44:05;12.20;;;9.73;;
66946;SDS011;53853;51.982;5.928;2023-11-18T10:46:40;12.35;;;8.07;;
66946;SDS011;53853;51.982;5.928;2023-11-18T10:49:22;12.70;;;7.97;;
66946;SDS011;53853;51.982;5.928;2023-11-18T10:51:52;15.40;;;10.85;;
66946;SDS011;53853;51.982;5.928;2023-11-18T10:54:23;13.15;;;9.23;;
66946;SDS011;53853;51.982;5.928;2023-11-18T10:56:53;17.45;;;9.70;;
66946;SDS011;53853;51.982;5.928;2023-11-18T10:59:24;13.55;;;8.77;;
66946;SDS011;53853;51.982;5.928;2023-11-18T11:01:54;15.18;;;9.32;;
66946;SDS011;53853;51.982;5.928;2023-11-18T11:04:26;11.48;;;8.35;;
66946;SDS011;53853;51.982;5.928;2023-11-18T11:07:11;14.43;;;6.95;;
66946;SDS011;53853;51.982;5.928;2023-11-18T11:09:44;13.40;;;8.52;;
66946;SDS011;53853;51.982;5.928;2023-11-18T11:12:15;10.55;;;7.25;;
66946;SDS011;53853;51.982;5.928;2023-11-18T11:14:50;7.80;;;6.03;;
66946;SDS011;53853;51.982;5.928;2023-11-18T11:17:30;9.27;;;6.65;;
66946;SDS011;53853;51.982;5.928;2023-11-18T11:20:06;11.15;;;7.38;;
66946;SDS011;53853;51.982;5.928;2023-11-18T11:25:36;11.25;;;7.82;;
66946;SDS011;53853;51.982;5.928;2023-11-18T11:28:20;11.52;;;7.50;;
66946;SDS011;53853;51.982;5.928;2023-11-18T11:30:55;12.23;;;8.23;;
66946;SDS011;53853;51.982;5.928;2023-11-18T11:33:32;10.07;;;6.78;;
66946;SDS011;53853;51.982;5.928;2023-11-18T11:36:12;9.68;;;6.65;;
66946;SDS011;53853;51.982;5.928;2023-11-18T11:38:48;9.52;;;5.97;;
66946;SDS011;53853;51.982;5.928;2023-11-18T11:41:21;13.27;;;8.10;;
66946;SDS011;53853;51.982;5.928;2023-11-18T11:43:54;11.23;;;7.20;;
66946;SDS011;53853;51.982;5.928;2023-11-18T11:46:26;10.65;;;6.82;;
66946;SDS011;53853;51.982;5.928;2023-11-18T11:49:00;13.13;;;8.95;;
66946;SDS011;53853;51.982;5.928;2023-11-18T11:51:45;11.48;;;7.55;;
66946;SDS011;53853;51.982;5.928;2023-11-18T11:54:20;8.55;;;6.68;;
66946;SDS011;53853;51.982;5.928;2023-11-18T11:56:55;9.55;;;5.85;;
66946;SDS011;53853;51.982;5.928;2023-11-18T11:59:35;9.88;;;6.82;;
66946;SDS011;53853;51.982;5.928;2023-11-18T12:02:23;8.80;;;5.55;;
66946;SDS011;53853;51.982;5.928;2023-11-18T12:04:55;9.18;;;6.43;;
66946;SDS011;53853;51.982;5.928;2023-11-18T12:07:35;7.63;;;5.75;;
66946;SDS011;53853;51.982;5.928;2023-11-18T12:10:12;6.25;;;4.95;;
66946;SDS011;53853;51.982;5.928;2023-11-18T12:12:46;8.82;;;6.15;;
66946;SDS011;53853;51.982;5.928;2023-11-18T12:15:33;8.43;;;5.88;;
66946;SDS011;53853;51.982;5.928;2023-11-18T12:18:20;6.93;;;5.22;;
66946;SDS011;53853;51.982;5.928;2023-11-18T12:20:50;6.47;;;4.60;;
66946;SDS011;53853;51.982;5.928;2023-11-18T12:23:25;8.38;;;5.93;;
66946;SDS011;53853;51.982;5.928;2023-11-18T12:25:57;9.77;;;6.75;;
66946;SDS011;53853;51.982;5.928;2023-11-18T12:28:29;10.82;;;6.25;;
66946;SDS011;53853;51.982;5.928;2023-11-18T12:31:00;5.80;;;4.57;;
66946;SDS011;53853;51.982;5.928;2023-11-18T12:36:39;7.10;;;5.00;;
66946;SDS011;53853;51.982;5.928;2023-11-18T12:45:42;6.43;;;4.50;;
66946;SDS011;53853;51.982;5.928;2023-11-18T12:48:21;7.10;;;5.03;;
66946;SDS011;53853;51.982;5.928;2023-11-18T12:50:53;11.63;;;5.45;;
66946;SDS011;53853;51.982;5.928;2023-11-18T12:53:23;8.27;;;5.63;;
66946;SDS011;53853;51.982;5.928;2023-11-18T12:55:56;11.27;;;6.07;;
66946;SDS011;53853;51.982;5.928;2023-11-18T12:58:27;6.70;;;4.93;;
66946;SDS011;53853;51.982;5.928;2023-11-18T13:00:59;11.95;;;5.55;;
66946;SDS011;53853;51.982;5.928;2023-11-18T13:03:29;10.93;;;6.18;;
66946;SDS011;53853;51.982;5.928;2023-11-18T13:06:00;8.52;;;5.82;;
66946;SDS011;53853;51.982;5.928;2023-11-18T13:08:31;7.82;;;4.82;;
66946;SDS011;53853;51.982;5.928;2023-11-18T13:11:04;10.45;;;4.95;;
66946;SDS011;53853;51.982;5.928;2023-11-18T13:13:41;7.18;;;4.72;;
66946;SDS011;53853;51.982;5.928;2023-11-18T13:16:12;8.88;;;5.03;;
66946;SDS011;53853;51.982;5.928;2023-11-18T13:18:43;7.53;;;4.50;;
66946;SDS011;53853;51.982;5.928;2023-11-18T13:21:15;9.13;;;5.10;;
66946;SDS011;53853;51.982;5.928;2023-11-18T13:23:46;6.88;;;4.10;;
66946;SDS011;53853;51.982;5.928;2023-11-18T13:26:21;5.10;;;3.55;;
66946;SDS011;53853;51.982;5.928;2023-11-18T13:28:51;7.95;;;3.88;;
66946;SDS011;53853;51.982;5.928;2023-11-18T13:31:21;7.97;;;4.25;;
66946;SDS011;53853;51.982;5.928;2023-11-18T13:33:51;4.90;;;3.80;;
66946;SDS011;53853;51.982;5.928;2023-11-18T13:36:21;6.32;;;3.80;;
66946;SDS011;53853;51.982;5.928;2023-11-18T13:38:51;5.97;;;3.50;;
66946;SDS011;53853;51.982;5.928;2023-11-18T13:41:33;10.23;;;4.22;;
66946;SDS011;53853;51.982;5.928;2023-11-18T13:44:03;8.38;;;4.97;;
66946;SDS011;53853;51.982;5.928;2023-11-18T13:46:33;6.32;;;3.83;;
66946;SDS011;53853;51.982;5.928;2023-11-18T13:49:06;7.17;;;4.20;;
66946;SDS011;53853;51.982;5.928;2023-11-18T13:51:37;5.60;;;3.75;;
66946;SDS011;53853;51.982;5.928;2023-11-18T13:54:07;7.00;;;3.35;;
66946;SDS011;53853;51.982;5.928;2023-11-18T13:56:40;10.05;;;4.50;;
66946;SDS011;53853;51.982;5.928;2023-11-18T13:59:10;5.47;;;3.97;;
66946;SDS011;53853;51.982;5.928;2023-11-18T14:01:40;7.97;;;4.47;;
66946;SDS011;53853;51.982;5.928;2023-11-18T14:04:11;7.30;;;4.25;;
66946;SDS011;53853;51.982;5.928;2023-11-18T14:06:41;5.72;;;4.38;;
66946;SDS011;53853;51.982;5.928;2023-11-18T14:09:11;6.22;;;3.33;;
66946;SDS011;53853;51.982;5.928;2023-11-18T14:11:44;7.03;;;4.05;;
66946;SDS011;53853;51.982;5.928;2023-11-18T14:14:14;7.63;;;3.58;;
66946;SDS011;53853;51.982;5.928;2023-11-18T14:16:44;5.72;;;2.97;;
66946;SDS011;53853;51.982;5.928;2023-11-18T14:19:13;5.72;;;3.28;;
66946;SDS011;53853;51.982;5.928;2023-11-18T14:21:44;5.57;;;3.10;;
66946;SDS011;53853;51.982;5.928;2023-11-18T14:24:15;4.32;;;2.53;;
66946;SDS011;53853;51.982;5.928;2023-11-18T14:26:47;3.40;;;2.65;;
66946;SDS011;53853;51.982;5.928;2023-11-18T14:29:19;10.13;;;4.53;;
66946;SDS011;53853;51.982;5.928;2023-11-18T14:31:49;6.20;;;3.13;;
66946;SDS011;53853;51.982;5.928;2023-11-18T14:34:18;3.92;;;2.60;;
66946;SDS011;53853;51.982;5.928;2023-11-18T14:36:50;4.60;;;2.72;;
66946;SDS011;53853;51.982;5.928;2023-11-18T14:39:19;5.82;;;3.00;;
66946;SDS011;53853;51.982;5.928;2023-11-18T14:41:52;4.57;;;2.55;;
66946;SDS011;53853;51.982;5.928;2023-11-18T14:44:21;5.15;;;3.17;;
66946;SDS011;53853;51.982;5.928;2023-11-18T14:46:51;4.43;;;3.13;;
66946;SDS011;53853;51.982;5.928;2023-11-18T14:49:21;3.97;;;2.45;;
66946;SDS011;53853;51.982;5.928;2023-11-18T14:51:51;5.55;;;2.33;;
66946;SDS011;53853;51.982;5.928;2023-11-18T14:54:21;4.18;;;2.30;;
66946;SDS011;53853;51.982;5.928;2023-11-18T14:56:53;3.78;;;2.55;;
66946;SDS011;53853;51.982;5.928;2023-11-18T14:59:23;3.05;;;2.22;;
66946;SDS011;53853;51.982;5.928;2023-11-18T15:01:53;4.90;;;2.30;;
66946;SDS011;53853;51.982;5.928;2023-11-18T15:04:23;4.60;;;2.53;;
66946;SDS011;53853;51.982;5.928;2023-11-18T15:06:54;3.88;;;2.40;;
66946;SDS011;53853;51.982;5.928;2023-11-18T15:09:25;3.95;;;2.10;;
66946;SDS011;53853;51.982;5.928;2023-11-18T15:12:00;4.38;;;2.75;;